sensor_id;sensor_type;location;lat;lon;timestamp;pressure;altitude;pressure_sealevel;temperature;humidity
59545;BME280;45368;55.002;-1.592;2023-04-23T00:01:54;99491.58;;;8.90;59.16
59545;BME280;45368;55.002;-1.592;2023-04-23T00:04:22;99492.48;;;9.61;58.19
59545;BME280;45368;55.002;-1.592;2023-04-23T00:06:52;99493.46;;;9.32;57.96
59545;BME280;45368;55.002;-1.592;2023-04-23T00:09:20;99496.17;;;10.06;56.66
59545;BME280;45368;55.002;-1.592;2023-04-23T00:11:49;99494.34;;;9.03;58.45
59545;BME280;45368;55.002;-1.592;2023-04-23T00:14:16;99491.12;;;9.90;57.15
59545;BME280;45368;55.002;-1.592;2023-04-23T00:16:44;99485.40;;;9.49;57.45
59545;BME280;45368;55.002;-1.592;2023-04-23T00:19:11;99481.39;;;9.40;57.77
59545;BME280;45368;55.002;-1.592;2023-04-23T00:21:38;99476.43;;;10.36;55.72
59545;BME280;45368;55.002;-1.592;2023-04-23T00:24:06;99480.01;;;9.52;57.01
59545;BME280;45368;55.002;-1.592;2023-04-23T00:26:34;99484.85;;;9.78;56.26
59545;BME280;45368;55.002;-1.592;2023-04-23T00:29:01;99487.22;;;8.60;58.76
59545;BME280;45368;55.002;-1.592;2023-04-23T00:31:28;99488.90;;;8.05;60.67
59545;BME280;45368;55.002;-1.592;2023-04-23T00:34:02;99487.65;;;8.77;58.29
59545;BME280;45368;55.002;-1.592;2023-04-23T00:36:29;99489.10;;;8.85;58.59
59545;BME280;45368;55.002;-1.592;2023-04-23T00:38:57;99491.60;;;10.15;55.64
59545;BME280;45368;55.002;-1.592;2023-04-23T00:41:24;99487.88;;;10.43;54.52
59545;BME280;45368;55.002;-1.592;2023-04-23T00:43:52;99486.12;;;10.30;54.25
59545;BME280;45368;55.002;-1.592;2023-04-23T00:47:28;99481.77;;;10.39;54.57
59545;BME280;45368;55.002;-1.592;2023-04-23T00:51:01;99488.37;;;8.91;57.21
59545;BME280;45368;55.002;-1.592;2023-04-23T00:54:45;99491.52;;;8.90;58.35
59545;BME280;45368;55.002;-1.592;2023-04-23T00:57:12;99486.78;;;9.06;56.01
59545;BME280;45368;55.002;-1.592;2023-04-23T01:13:41;99475.59;;;9.96;55.35
59545;BME280;45368;55.002;-1.592;2023-04-23T01:18:04;99475.71;;;9.88;55.00
59545;BME280;45368;55.002;-1.592;2023-04-23T01:20:31;99478.32;;;9.49;56.50
59545;BME280;45368;55.002;-1.592;2023-04-23T01:22:59;99474.75;;;10.63;54.50
59545;BME280;45368;55.002;-1.592;2023-04-23T01:25:27;99473.26;;;10.84;54.33
59545;BME280;45368;55.002;-1.592;2023-04-23T01:27:55;99474.77;;;10.78;54.41
59545;BME280;45368;55.002;-1.592;2023-04-23T01:30:23;99470.25;;;10.58;54.48
59545;BME280;45368;55.002;-1.592;2023-04-23T01:32:51;99474.33;;;10.51;55.16
59545;BME280;45368;55.002;-1.592;2023-04-23T01:35:19;99468.89;;;10.07;55.68
59545;BME280;45368;55.002;-1.592;2023-04-23T01:37:47;99466.08;;;10.86;54.47
59545;BME280;45368;55.002;-1.592;2023-04-23T01:40:16;99467.52;;;11.23;53.72
59545;BME280;45368;55.002;-1.592;2023-04-23T01:42:43;99465.21;;;11.19;53.98
59545;BME280;45368;55.002;-1.592;2023-04-23T01:45:11;99460.75;;;10.59;54.39
59545;BME280;45368;55.002;-1.592;2023-04-23T01:47:39;99461.68;;;9.63;56.12
59545;BME280;45368;55.002;-1.592;2023-04-23T01:50:07;99456.90;;;10.41;55.38
59545;BME280;45368;55.002;-1.592;2023-04-23T01:52:35;99459.63;;;10.64;54.78
59545;BME280;45368;55.002;-1.592;2023-04-23T01:55:03;99460.39;;;10.83;54.64
59545;BME280;45368;55.002;-1.592;2023-04-23T01:57:30;99462.42;;;10.41;54.69
59545;BME280;45368;55.002;-1.592;2023-04-23T02:00:03;99461.05;;;10.89;54.07
59545;BME280;45368;55.002;-1.592;2023-04-23T02:02:31;99460.52;;;10.65;54.39
59545;BME280;45368;55.002;-1.592;2023-04-23T02:05:00;99457.65;;;11.13;53.40
59545;BME280;45368;55.002;-1.592;2023-04-23T02:07:27;99463.03;;;10.89;53.64
59545;BME280;45368;55.002;-1.592;2023-04-23T02:09:54;99461.15;;;10.59;54.24
59545;BME280;45368;55.002;-1.592;2023-04-23T02:12:21;99454.45;;;11.25;53.52
59545;BME280;45368;55.002;-1.592;2023-04-23T02:14:48;99459.45;;;10.91;53.78
59545;BME280;45368;55.002;-1.592;2023-04-23T02:17:17;99460.48;;;10.98;53.86
59545;BME280;45368;55.002;-1.592;2023-04-23T02:19:45;99459.03;;;11.42;53.06
59545;BME280;45368;55.002;-1.592;2023-04-23T02:22:11;99460.73;;;11.49;52.79
59545;BME280;45368;55.002;-1.592;2023-04-23T02:24:38;99461.30;;;11.58;52.72
59545;BME280;45368;55.002;-1.592;2023-04-23T02:27:06;99459.70;;;11.21;53.03
59545;BME280;45368;55.002;-1.592;2023-04-23T02:29:34;99458.18;;;11.12;53.26
59545;BME280;45368;55.002;-1.592;2023-04-23T02:32:02;99457.41;;;11.21;53.28
59545;BME280;45368;55.002;-1.592;2023-04-23T02:34:29;99456.27;;;11.58;52.90
59545;BME280;45368;55.002;-1.592;2023-04-23T02:36:57;99456.31;;;11.68;52.70
59545;BME280;45368;55.002;-1.592;2023-04-23T02:39:24;99459.38;;;11.25;52.91
59545;BME280;45368;55.002;-1.592;2023-04-23T02:41:51;99461.57;;;10.73;53.90
59545;BME280;45368;55.002;-1.592;2023-04-23T02:44:18;99457.41;;;10.78;53.75
59545;BME280;45368;55.002;-1.592;2023-04-23T02:46:45;99459.90;;;9.98;55.44
59545;BME280;45368;55.002;-1.592;2023-04-23T02:49:12;99458.44;;;10.60;54.36
59545;BME280;45368;55.002;-1.592;2023-04-23T02:51:39;99462.59;;;10.07;54.90
59545;BME280;45368;55.002;-1.592;2023-04-23T02:54:06;99456.20;;;10.52;54.43
59545;BME280;45368;55.002;-1.592;2023-04-23T02:56:34;99453.92;;;10.42;54.75
59545;BME280;45368;55.002;-1.592;2023-04-23T02:59:01;99460.95;;;10.05;55.76
59545;BME280;45368;55.002;-1.592;2023-04-23T03:01:29;99463.86;;;10.20;55.13
59545;BME280;45368;55.002;-1.592;2023-04-23T03:03:57;99466.88;;;9.17;56.49
59545;BME280;45368;55.002;-1.592;2023-04-23T03:06:24;99469.86;;;9.53;56.56
59545;BME280;45368;55.002;-1.592;2023-04-23T03:08:51;99469.06;;;9.60;56.81
59545;BME280;45368;55.002;-1.592;2023-04-23T03:11:19;99468.56;;;9.60;56.88
59545;BME280;45368;55.002;-1.592;2023-04-23T03:13:47;99467.66;;;9.10;57.67
59545;BME280;45368;55.002;-1.592;2023-04-23T03:16:14;99464.59;;;9.75;56.46
59545;BME280;45368;55.002;-1.592;2023-04-23T03:18:41;99465.81;;;10.32;55.32
59545;BME280;45368;55.002;-1.592;2023-04-23T03:21:09;99465.74;;;9.96;55.56
59545;BME280;45368;55.002;-1.592;2023-04-23T03:23:35;99459.04;;;10.61;54.78
59545;BME280;45368;55.002;-1.592;2023-04-23T03:26:03;99455.85;;;10.12;54.81
59545;BME280;45368;55.002;-1.592;2023-04-23T03:28:30;99459.87;;;9.98;54.96
59545;BME280;45368;55.002;-1.592;2023-04-23T03:30:58;99456.53;;;10.32;54.87
59545;BME280;45368;55.002;-1.592;2023-04-23T03:33:26;99456.60;;;10.25;54.56
59545;BME280;45368;55.002;-1.592;2023-04-23T03:35:53;99451.97;;;10.64;53.91
59545;BME280;45368;55.002;-1.592;2023-04-23T03:38:26;99450.65;;;10.57;54.42
59545;BME280;45368;55.002;-1.592;2023-04-23T03:40:54;99451.45;;;10.05;55.12
59545;BME280;45368;55.002;-1.592;2023-04-23T03:43:21;99450.75;;;9.28;56.53
59545;BME280;45368;55.002;-1.592;2023-04-23T03:45:48;99453.88;;;9.35;56.64
59545;BME280;45368;55.002;-1.592;2023-04-23T03:48:15;99448.19;;;9.24;56.45
59545;BME280;45368;55.002;-1.592;2023-04-23T03:50:43;99445.55;;;9.36;56.92
59545;BME280;45368;55.002;-1.592;2023-04-23T03:53:10;99446.00;;;9.46;56.63
59545;BME280;45368;55.002;-1.592;2023-04-23T03:55:37;99444.86;;;9.37;56.16
59545;BME280;45368;55.002;-1.592;2023-04-23T03:58:05;99446.86;;;9.73;55.76
59545;BME280;45368;55.002;-1.592;2023-04-23T04:00:32;99447.92;;;9.38;56.30
59545;BME280;45368;55.002;-1.592;2023-04-23T04:02:59;99443.94;;;8.70;56.91
59545;BME280;45368;55.002;-1.592;2023-04-23T04:05:27;99443.81;;;9.19;56.20
59545;BME280;45368;55.002;-1.592;2023-04-23T04:07:55;99441.08;;;9.20;56.33
59545;BME280;45368;55.002;-1.592;2023-04-23T04:10:22;99440.36;;;9.42;55.84
59545;BME280;45368;55.002;-1.592;2023-04-23T04:12:49;99439.39;;;9.60;55.39
59545;BME280;45368;55.002;-1.592;2023-04-23T04:15:16;99437.34;;;9.82;55.13
59545;BME280;45368;55.002;-1.592;2023-04-23T04:17:44;99438.06;;;9.86;55.02
59545;BME280;45368;55.002;-1.592;2023-04-23T04:20:12;99440.62;;;9.04;56.18
59545;BME280;45368;55.002;-1.592;2023-04-23T04:22:39;99439.33;;;9.34;55.62
59545;BME280;45368;55.002;-1.592;2023-04-23T04:25:07;99438.93;;;9.35;56.23
59545;BME280;45368;55.002;-1.592;2023-04-23T04:27:35;99439.59;;;9.79;55.19
59545;BME280;45368;55.002;-1.592;2023-04-23T04:30:02;99434.18;;;10.00;54.20
59545;BME280;45368;55.002;-1.592;2023-04-23T04:32:30;99435.97;;;9.87;54.65
59545;BME280;45368;55.002;-1.592;2023-04-23T04:34:57;99431.67;;;10.29;54.11
59545;BME280;45368;55.002;-1.592;2023-04-23T04:37:25;99429.04;;;10.52;53.58
59545;BME280;45368;55.002;-1.592;2023-04-23T04:39:53;99431.74;;;9.99;53.79
59545;BME280;45368;55.002;-1.592;2023-04-23T04:42:20;99430.88;;;10.31;53.76
59545;BME280;45368;55.002;-1.592;2023-04-23T04:44:47;99433.67;;;9.83;54.43
59545;BME280;45368;55.002;-1.592;2023-04-23T04:47:14;99431.96;;;10.15;53.34
59545;BME280;45368;55.002;-1.592;2023-04-23T04:49:47;99435.51;;;10.11;53.52
59545;BME280;45368;55.002;-1.592;2023-04-23T04:52:14;99440.45;;;10.13;54.30
59545;BME280;45368;55.002;-1.592;2023-04-23T04:54:41;99447.15;;;9.92;54.22
59545;BME280;45368;55.002;-1.592;2023-04-23T04:57:08;99447.16;;;9.78;54.46
59545;BME280;45368;55.002;-1.592;2023-04-23T04:59:36;99441.55;;;10.45;53.02
59545;BME280;45368;55.002;-1.592;2023-04-23T05:02:03;99438.20;;;10.22;53.23
59545;BME280;45368;55.002;-1.592;2023-04-23T05:04:31;99440.66;;;9.72;53.78
59545;BME280;45368;55.002;-1.592;2023-04-23T05:06:59;99439.05;;;9.42;54.40
59545;BME280;45368;55.002;-1.592;2023-04-23T05:09:27;99439.47;;;9.64;54.42
59545;BME280;45368;55.002;-1.592;2023-04-23T05:11:54;99440.14;;;10.34;53.33
59545;BME280;45368;55.002;-1.592;2023-04-23T05:14:21;99440.06;;;10.13;53.36
59545;BME280;45368;55.002;-1.592;2023-04-23T05:16:49;99439.87;;;10.45;52.81
59545;BME280;45368;55.002;-1.592;2023-04-23T05:19:15;99444.67;;;10.36;53.35
59545;BME280;45368;55.002;-1.592;2023-04-23T05:21:47;99439.30;;;10.27;52.71
59545;BME280;45368;55.002;-1.592;2023-04-23T05:24:15;99437.72;;;10.71;52.57
59545;BME280;45368;55.002;-1.592;2023-04-23T05:26:42;99435.83;;;10.06;52.84
59545;BME280;45368;55.002;-1.592;2023-04-23T05:29:09;99435.80;;;10.45;52.65
59545;BME280;45368;55.002;-1.592;2023-04-23T05:31:36;99434.57;;;10.81;51.72
59545;BME280;45368;55.002;-1.592;2023-04-23T05:34:04;99433.16;;;9.89;52.74
59545;BME280;45368;55.002;-1.592;2023-04-23T05:36:31;99433.02;;;10.20;52.87
59545;BME280;45368;55.002;-1.592;2023-04-23T05:38:58;99431.91;;;9.86;52.53
59545;BME280;45368;55.002;-1.592;2023-04-23T05:41:26;99441.65;;;10.02;52.75
59545;BME280;45368;55.002;-1.592;2023-04-23T05:43:53;99440.14;;;10.17;52.71
59545;BME280;45368;55.002;-1.592;2023-04-23T05:46:21;99440.68;;;10.57;52.04
59545;BME280;45368;55.002;-1.592;2023-04-23T05:48:48;99440.88;;;10.60;52.17
59545;BME280;45368;55.002;-1.592;2023-04-23T05:51:15;99443.84;;;10.36;52.10
59545;BME280;45368;55.002;-1.592;2023-04-23T05:54:18;99445.42;;;10.03;53.37
59545;BME280;45368;55.002;-1.592;2023-04-23T06:19:41;99438.43;;;10.17;54.18
59545;BME280;45368;55.002;-1.592;2023-04-23T06:25:45;99444.23;;;8.94;57.02
59545;BME280;45368;55.002;-1.592;2023-04-23T06:28:12;99444.76;;;8.78;57.22
59545;BME280;45368;55.002;-1.592;2023-04-23T06:30:40;99446.98;;;7.96;59.34
59545;BME280;45368;55.002;-1.592;2023-04-23T06:33:08;99449.82;;;7.45;61.33
59545;BME280;45368;55.002;-1.592;2023-04-23T06:35:35;99447.02;;;8.03;60.42
59545;BME280;45368;55.002;-1.592;2023-04-23T06:38:03;99446.27;;;7.98;59.84
59545;BME280;45368;55.002;-1.592;2023-04-23T06:40:30;99445.33;;;8.40;58.84
59545;BME280;45368;55.002;-1.592;2023-04-23T06:43:02;99445.57;;;8.84;58.09
59545;BME280;45368;55.002;-1.592;2023-04-23T06:45:29;99445.74;;;8.85;57.26
59545;BME280;45368;55.002;-1.592;2023-04-23T06:47:57;99445.48;;;9.37;56.43
59545;BME280;45368;55.002;-1.592;2023-04-23T06:50:26;99445.58;;;8.99;56.63
59545;BME280;45368;55.002;-1.592;2023-04-23T06:52:53;99448.28;;;8.35;58.59
59545;BME280;45368;55.002;-1.592;2023-04-23T06:55:21;99449.08;;;8.32;58.36
59545;BME280;45368;55.002;-1.592;2023-04-23T06:57:49;99457.33;;;7.76;60.12
59545;BME280;45368;55.002;-1.592;2023-04-23T07:00:16;99458.85;;;7.37;60.91
59545;BME280;45368;55.002;-1.592;2023-04-23T07:02:44;99462.68;;;7.50;60.98
59545;BME280;45368;55.002;-1.592;2023-04-23T07:05:12;99458.48;;;8.00;59.57
59545;BME280;45368;55.002;-1.592;2023-04-23T07:07:39;99458.91;;;8.48;58.58
59545;BME280;45368;55.002;-1.592;2023-04-23T07:10:12;99460.95;;;8.86;57.46
59545;BME280;45368;55.002;-1.592;2023-04-23T07:12:40;99460.03;;;8.09;58.50
59545;BME280;45368;55.002;-1.592;2023-04-23T07:15:08;99459.20;;;9.05;56.50
59545;BME280;45368;55.002;-1.592;2023-04-23T07:17:35;99458.37;;;8.57;56.30
59545;BME280;45368;55.002;-1.592;2023-04-23T07:20:02;99459.58;;;8.60;56.02
59545;BME280;45368;55.002;-1.592;2023-04-23T07:22:30;99463.72;;;8.08;57.85
59545;BME280;45368;55.002;-1.592;2023-04-23T07:24:57;99460.47;;;7.55;58.99
59545;BME280;45368;55.002;-1.592;2023-04-23T07:27:24;99457.81;;;8.37;57.59
59545;BME280;45368;55.002;-1.592;2023-04-23T07:29:52;99461.89;;;8.08;58.04
59545;BME280;45368;55.002;-1.592;2023-04-23T07:32:19;99460.69;;;8.04;59.33
59545;BME280;45368;55.002;-1.592;2023-04-23T07:34:46;99465.13;;;7.69;59.99
59545;BME280;45368;55.002;-1.592;2023-04-23T07:37:14;99462.65;;;8.44;59.34
59545;BME280;45368;55.002;-1.592;2023-04-23T07:39:41;99464.58;;;8.93;57.25
59545;BME280;45368;55.002;-1.592;2023-04-23T07:42:08;99463.47;;;9.50;55.01
59545;BME280;45368;55.002;-1.592;2023-04-23T07:44:36;99462.28;;;9.68;56.23
59545;BME280;45368;55.002;-1.592;2023-04-23T07:47:04;99463.46;;;9.81;55.87
59545;BME280;45368;55.002;-1.592;2023-04-23T07:49:31;99455.59;;;10.34;54.14
59545;BME280;45368;55.002;-1.592;2023-04-23T07:51:58;99450.07;;;11.61;50.43
59545;BME280;45368;55.002;-1.592;2023-04-23T07:54:27;99445.46;;;11.84;50.10
59545;BME280;45368;55.002;-1.592;2023-04-23T07:56:54;99444.32;;;11.33;50.01
59545;BME280;45368;55.002;-1.592;2023-04-23T07:59:21;99437.88;;;12.67;48.47
59545;BME280;45368;55.002;-1.592;2023-04-23T08:01:49;99439.42;;;12.87;47.74
59545;BME280;45368;55.002;-1.592;2023-04-23T08:04:18;99438.45;;;12.60;47.95
59545;BME280;45368;55.002;-1.592;2023-04-23T08:06:45;99434.29;;;12.39;47.77
59545;BME280;45368;55.002;-1.592;2023-04-23T08:09:13;99440.05;;;11.61;48.49
59545;BME280;45368;55.002;-1.592;2023-04-23T08:11:40;99444.30;;;10.95;49.69
59545;BME280;45368;55.002;-1.592;2023-04-23T08:14:09;99436.99;;;12.45;46.66
59545;BME280;45368;55.002;-1.592;2023-04-23T08:16:36;99433.16;;;13.70;44.57
59545;BME280;45368;55.002;-1.592;2023-04-23T08:19:04;99430.77;;;13.96;43.14
59545;BME280;45368;55.002;-1.592;2023-04-23T08:21:37;99427.18;;;15.13;42.55
59545;BME280;45368;55.002;-1.592;2023-04-23T08:24:05;99420.56;;;15.54;40.31
59545;BME280;45368;55.002;-1.592;2023-04-23T08:26:32;99422.11;;;15.52;39.93
59545;BME280;45368;55.002;-1.592;2023-04-23T08:28:59;99417.68;;;16.32;38.95
59545;BME280;45368;55.002;-1.592;2023-04-23T08:31:27;99423.69;;;14.95;40.69
59545;BME280;45368;55.002;-1.592;2023-04-23T08:33:55;99427.80;;;13.58;43.27
59545;BME280;45368;55.002;-1.592;2023-04-23T08:36:23;99429.44;;;13.40;43.78
59545;BME280;45368;55.002;-1.592;2023-04-23T08:38:50;99434.23;;;11.77;46.53
59545;BME280;45368;55.002;-1.592;2023-04-23T08:41:22;99431.89;;;12.42;46.03
59545;BME280;45368;55.002;-1.592;2023-04-23T08:43:59;99429.82;;;13.44;44.04
59545;BME280;45368;55.002;-1.592;2023-04-23T08:46:30;99428.54;;;13.99;44.40
59545;BME280;45368;55.002;-1.592;2023-04-23T08:49:02;99432.20;;;11.89;45.58
59545;BME280;45368;55.002;-1.592;2023-04-23T08:51:32;99425.70;;;12.68;44.31
59545;BME280;45368;55.002;-1.592;2023-04-23T08:54:03;99427.73;;;11.37;48.14
59545;BME280;45368;55.002;-1.592;2023-04-23T08:56:31;99429.34;;;11.39;47.95
59545;BME280;45368;55.002;-1.592;2023-04-23T08:58:58;99429.57;;;11.25;47.76
59545;BME280;45368;55.002;-1.592;2023-04-23T09:01:27;99433.76;;;10.98;50.20
59545;BME280;45368;55.002;-1.592;2023-04-23T09:03:55;99425.82;;;12.54;46.57
59545;BME280;45368;55.002;-1.592;2023-04-23T09:06:23;99429.81;;;12.00;47.34
59545;BME280;45368;55.002;-1.592;2023-04-23T09:08:51;99423.03;;;12.72;46.23
59545;BME280;45368;55.002;-1.592;2023-04-23T09:11:18;99428.08;;;11.83;47.13
59545;BME280;45368;55.002;-1.592;2023-04-23T09:13:47;99423.02;;;12.56;47.21
59545;BME280;45368;55.002;-1.592;2023-04-23T09:16:14;99430.51;;;12.01;47.83
59545;BME280;45368;55.002;-1.592;2023-04-23T09:18:41;99428.85;;;12.81;46.43
59545;BME280;45368;55.002;-1.592;2023-04-23T09:21:08;99431.89;;;11.24;49.35
59545;BME280;45368;55.002;-1.592;2023-04-23T09:23:38;99429.74;;;12.69;46.97
59545;BME280;45368;55.002;-1.592;2023-04-23T09:26:06;99437.50;;;11.49;48.13
59545;BME280;45368;55.002;-1.592;2023-04-23T09:28:34;99429.43;;;12.40;47.69
59545;BME280;45368;55.002;-1.592;2023-04-23T09:31:01;99426.00;;;13.36;46.37
59545;BME280;45368;55.002;-1.592;2023-04-23T09:33:34;99432.97;;;11.16;46.94
59545;BME280;45368;55.002;-1.592;2023-04-23T09:36:07;99431.27;;;12.44;46.71
59545;BME280;45368;55.002;-1.592;2023-04-23T09:38:35;99429.68;;;12.40;45.53
59545;BME280;45368;55.002;-1.592;2023-04-23T09:41:20;99436.36;;;11.98;46.66
59545;BME280;45368;55.002;-1.592;2023-04-23T09:43:47;99438.98;;;10.97;47.22
59545;BME280;45368;55.002;-1.592;2023-04-23T09:46:15;99433.34;;;12.16;45.74
59545;BME280;45368;55.002;-1.592;2023-04-23T09:48:42;99438.01;;;11.42;47.25
59545;BME280;45368;55.002;-1.592;2023-04-23T09:53:40;99437.95;;;10.86;46.17
59545;BME280;45368;55.002;-1.592;2023-04-23T09:56:07;99434.96;;;11.89;46.01
59545;BME280;45368;55.002;-1.592;2023-04-23T09:58:35;99436.76;;;12.76;44.53
59545;BME280;45368;55.002;-1.592;2023-04-23T10:01:06;99438.10;;;11.78;47.37
59545;BME280;45368;55.002;-1.592;2023-04-23T10:03:34;99439.38;;;11.30;48.46
59545;BME280;45368;55.002;-1.592;2023-04-23T10:06:01;99442.10;;;10.45;50.12
59545;BME280;45368;55.002;-1.592;2023-04-23T10:08:29;99444.79;;;10.58;49.91
59545;BME280;45368;55.002;-1.592;2023-04-23T10:10:58;99435.97;;;11.54;47.68
59545;BME280;45368;55.002;-1.592;2023-04-23T10:13:30;99437.96;;;12.34;46.07
59545;BME280;45368;55.002;-1.592;2023-04-23T10:15:59;99433.71;;;12.75;44.68
59545;BME280;45368;55.002;-1.592;2023-04-23T10:18:29;99429.28;;;13.31;44.96
59545;BME280;45368;55.002;-1.592;2023-04-23T10:21:01;99433.89;;;12.05;44.44
59545;BME280;45368;55.002;-1.592;2023-04-23T10:23:28;99433.33;;;12.38;43.69
59545;BME280;45368;55.002;-1.592;2023-04-23T10:25:57;99435.42;;;12.32;45.05
59545;BME280;45368;55.002;-1.592;2023-04-23T10:28:29;99434.66;;;11.97;47.23
59545;BME280;45368;55.002;-1.592;2023-04-23T10:30:59;99433.22;;;12.01;44.98
59545;BME280;45368;55.002;-1.592;2023-04-23T10:33:27;99433.86;;;12.93;44.49
59545;BME280;45368;55.002;-1.592;2023-04-23T10:35:57;99433.50;;;12.80;42.72
59545;BME280;45368;55.002;-1.592;2023-04-23T10:38:25;99436.11;;;12.75;43.44
59545;BME280;45368;55.002;-1.592;2023-04-23T10:40:54;99434.34;;;12.82;43.72
59545;BME280;45368;55.002;-1.592;2023-04-23T10:43:22;99430.52;;;13.45;42.65
59545;BME280;45368;55.002;-1.592;2023-04-23T10:45:50;99431.54;;;13.22;42.24
59545;BME280;45368;55.002;-1.592;2023-04-23T10:48:19;99435.07;;;12.25;43.11
59545;BME280;45368;55.002;-1.592;2023-04-23T10:50:46;99436.55;;;12.26;43.34
59545;BME280;45368;55.002;-1.592;2023-04-23T10:53:23;99434.02;;;12.44;44.19
59545;BME280;45368;55.002;-1.592;2023-04-23T10:56:04;99430.37;;;14.50;42.52
59545;BME280;45368;55.002;-1.592;2023-04-23T11:00:48;99418.83;;;17.14;37.92
59545;BME280;45368;55.002;-1.592;2023-04-23T11:03:36;99397.00;;;23.31;28.44
59545;BME280;45368;55.002;-1.592;2023-04-23T11:06:04;99392.82;;;24.68;26.18
59545;BME280;45368;55.002;-1.592;2023-04-23T11:08:37;99388.75;;;26.22;23.17
59545;BME280;45368;55.002;-1.592;2023-04-23T11:20:20;99401.82;;;22.41;27.80
59545;BME280;45368;55.002;-1.592;2023-04-23T11:28:55;99415.54;;;17.54;33.53
59545;BME280;45368;55.002;-1.592;2023-04-23T11:31:23;99419.08;;;16.37;35.58
59545;BME280;45368;55.002;-1.592;2023-04-23T11:33:50;99422.11;;;15.76;36.64
59545;BME280;45368;55.002;-1.592;2023-04-23T11:36:18;99428.27;;;15.15;37.77
59545;BME280;45368;55.002;-1.592;2023-04-23T11:38:45;99430.21;;;14.31;38.69
59545;BME280;45368;55.002;-1.592;2023-04-23T11:41:12;99432.97;;;12.69;41.54
59545;BME280;45368;55.002;-1.592;2023-04-23T11:43:41;99433.09;;;12.37;44.09
59545;BME280;45368;55.002;-1.592;2023-04-23T11:46:09;99434.91;;;12.46;43.84
59545;BME280;45368;55.002;-1.592;2023-04-23T11:48:36;99431.84;;;14.39;42.30
59545;BME280;45368;55.002;-1.592;2023-04-23T11:51:04;99429.60;;;15.60;39.48
59545;BME280;45368;55.002;-1.592;2023-04-23T11:53:31;99429.48;;;15.52;38.90
59545;BME280;45368;55.002;-1.592;2023-04-23T11:55:59;99432.11;;;15.44;38.30
59545;BME280;45368;55.002;-1.592;2023-04-23T11:58:27;99438.64;;;14.00;40.07
59545;BME280;45368;55.002;-1.592;2023-04-23T12:00:56;99444.54;;;12.55;43.72
59545;BME280;45368;55.002;-1.592;2023-04-23T12:03:25;99442.30;;;13.32;41.92
59545;BME280;45368;55.002;-1.592;2023-04-23T12:05:52;99437.87;;;13.46;42.64
59545;BME280;45368;55.002;-1.592;2023-04-23T12:08:20;99440.60;;;13.66;43.51
59545;BME280;45368;55.002;-1.592;2023-04-23T12:10:48;99441.84;;;12.41;46.16
59545;BME280;45368;55.002;-1.592;2023-04-23T12:13:17;99439.42;;;13.50;43.31
59545;BME280;45368;55.002;-1.592;2023-04-23T12:15:46;99437.50;;;13.28;43.90
59545;BME280;45368;55.002;-1.592;2023-04-23T12:18:14;99443.86;;;13.04;43.75
59545;BME280;45368;55.002;-1.592;2023-04-23T12:20:41;99444.25;;;12.40;44.33
59545;BME280;45368;55.002;-1.592;2023-04-23T12:23:08;99437.80;;;13.04;43.74
59545;BME280;45368;55.002;-1.592;2023-04-23T12:25:36;99440.78;;;12.65;44.10
59545;BME280;45368;55.002;-1.592;2023-04-23T12:28:03;99437.53;;;13.37;44.07
59545;BME280;45368;55.002;-1.592;2023-04-23T12:30:34;99440.69;;;12.36;44.30
59545;BME280;45368;55.002;-1.592;2023-04-23T12:33:10;99452.02;;;11.63;46.82
59545;BME280;45368;55.002;-1.592;2023-04-23T12:35:38;99445.98;;;13.21;44.53
59545;BME280;45368;55.002;-1.592;2023-04-23T12:38:06;99449.16;;;12.90;43.78
59545;BME280;45368;55.002;-1.592;2023-04-23T12:40:33;99451.08;;;12.93;45.30
59545;BME280;45368;55.002;-1.592;2023-04-23T12:43:04;99446.66;;;13.42;43.29
59545;BME280;45368;55.002;-1.592;2023-04-23T12:45:36;99450.13;;;12.72;44.86
59545;BME280;45368;55.002;-1.592;2023-04-23T12:48:03;99452.82;;;12.60;45.11
59545;BME280;45368;55.002;-1.592;2023-04-23T12:50:30;99455.88;;;12.37;45.36
59545;BME280;45368;55.002;-1.592;2023-04-23T12:52:58;99454.95;;;12.54;45.72
59545;BME280;45368;55.002;-1.592;2023-04-23T12:55:25;99465.39;;;10.74;48.51
59545;BME280;45368;55.002;-1.592;2023-04-23T12:57:52;99456.69;;;12.55;45.95
59545;BME280;45368;55.002;-1.592;2023-04-23T13:00:21;99453.94;;;12.96;44.18
59545;BME280;45368;55.002;-1.592;2023-04-23T13:02:49;99453.46;;;12.99;45.51
59545;BME280;45368;55.002;-1.592;2023-04-23T13:05:16;99459.15;;;11.46;48.30
59545;BME280;45368;55.002;-1.592;2023-04-23T13:07:44;99465.78;;;10.39;50.28
59545;BME280;45368;55.002;-1.592;2023-04-23T13:10:11;99463.21;;;11.56;49.53
59545;BME280;45368;55.002;-1.592;2023-04-23T13:12:38;99462.41;;;12.66;47.91
59545;BME280;45368;55.002;-1.592;2023-04-23T13:15:07;99466.01;;;11.53;49.61
59545;BME280;45368;55.002;-1.592;2023-04-23T13:17:35;99476.00;;;10.86;51.71
59545;BME280;45368;55.002;-1.592;2023-04-23T13:20:02;99476.17;;;10.23;53.42
59545;BME280;45368;55.002;-1.592;2023-04-23T13:22:30;99480.67;;;11.22;53.42
59545;BME280;45368;55.002;-1.592;2023-04-23T13:24:57;99480.56;;;10.63;54.38
59545;BME280;45368;55.002;-1.592;2023-04-23T13:27:30;99482.54;;;10.79;54.29
59545;BME280;45368;55.002;-1.592;2023-04-23T13:29:57;99485.20;;;10.73;55.35
59545;BME280;45368;55.002;-1.592;2023-04-23T13:32:25;99481.34;;;11.07;54.60
59545;BME280;45368;55.002;-1.592;2023-04-23T13:34:53;99488.57;;;10.21;55.77
59545;BME280;45368;55.002;-1.592;2023-04-23T13:37:20;99487.72;;;11.46;53.89
59545;BME280;45368;55.002;-1.592;2023-04-23T13:39:47;99483.27;;;11.41;55.13
59545;BME280;45368;55.002;-1.592;2023-04-23T13:42:15;99482.81;;;11.27;58.60
59545;BME280;45368;55.002;-1.592;2023-04-23T13:44:42;99481.58;;;11.32;56.15
59545;BME280;45368;55.002;-1.592;2023-04-23T13:47:10;99474.37;;;12.12;54.33
59545;BME280;45368;55.002;-1.592;2023-04-23T13:49:38;99480.92;;;12.26;54.20
59545;BME280;45368;55.002;-1.592;2023-04-23T13:52:05;99480.02;;;11.98;54.28
59545;BME280;45368;55.002;-1.592;2023-04-23T13:54:32;99490.73;;;10.38;55.96
59545;BME280;45368;55.002;-1.592;2023-04-23T13:56:59;99494.88;;;9.42;60.05
59545;BME280;45368;55.002;-1.592;2023-04-23T13:59:27;99498.40;;;8.23;63.44
59545;BME280;45368;55.002;-1.592;2023-04-23T14:01:55;99498.58;;;9.09;61.84
59545;BME280;45368;55.002;-1.592;2023-04-23T14:04:22;99500.46;;;9.18;62.85